Time;durP1;ratioP1;P1;durP2;ratioP2;P2;SDS_P1;SDS_P2;PMS_P1;PMS_P2;Temp;Humidity;BMP_temperature;BMP_pressure;BME280_temperature;BME280_humidity;BME280_pressure;Samples;Min_cycle;Max_cycle;Signal;HPM_P1;HPM_P2
2022/11/15 00:01:26;;;;;;;;;39.75;34.50;;;;;14.56;51.56;99685.66;4843741;29;8883;-79
2022/11/15 00:04:14;;;;;;;;;43.00;35.25;;;;;14.60;51.50;99684.72;4854199;29;9704;-78
2022/11/15 00:07:01;;;;;;;;;38.75;35.00;;;;;14.45;51.90;99697.19;4855915;29;8893;-78
2022/11/15 00:09:49;;;;;;;;;40.50;36.25;;;;;14.55;51.55;99698.78;4855893;29;8883;-79
2022/11/15 00:12:36;;;;;;;;;47.50;39.00;;;;;14.40;52.05;99697.22;4856554;29;8921;-79
2022/11/15 00:15:23;;;;;;;;;37.25;34.75;;;;;14.44;51.97;99688.44;4852523;29;9112;-78
2022/11/15 00:18:14;;;;;;;;;45.25;37.25;;;;;14.51;51.92;99684.84;4837886;29;9740;-79
2022/11/15 00:21:07;;;;;;;;;41.75;36.25;;;;;14.62;51.66;99679.47;4835855;29;8901;-80
2022/11/15 00:23:54;;;;;;;;;41.00;36.25;;;;;14.50;51.70;99683.13;4838346;29;8931;-78
2022/11/15 00:26:41;;;;;;;;;34.20;33.40;;;;;14.69;51.31;99695.97;4852115;29;8865;-77
2022/11/15 00:29:28;;;;;;;;;43.75;36.75;;;;;14.49;51.68;99684.00;4839310;29;9631;-76
2022/11/15 00:32:15;;;;;;;;;44.00;36.50;;;;;14.52;51.51;99680.47;4853871;29;8894;-78
2022/11/15 00:35:02;;;;;;;;;35.50;34.00;;;;;14.61;51.35;99673.38;4870655;29;8998;-77
2022/11/15 00:37:50;;;;;;;;;41.50;35.25;;;;;14.22;52.44;99685.25;4857346;29;8894;-77
2022/11/15 00:40:37;;;;;;;;;42.75;35.50;;;;;14.51;51.63;99683.97;4857037;29;8905;-78
2022/11/15 00:43:25;;;;;;;;;32.25;31.25;;;;;14.60;51.20;99687.34;4862902;29;8906;-76
2022/11/15 00:46:12;;;;;;;;;34.20;27.80;;;;;14.66;50.90;99683.78;4874489;29;8983;-77
2022/11/15 00:49:00;;;;;;;;;37.50;34.50;;;;;14.68;50.94;99684.63;4872759;29;8887;-77
2022/11/15 00:51:46;;;;;;;;;31.75;28.50;;;;;14.72;50.89;99688.94;4878037;29;8875;-75
2022/11/15 00:54:35;;;;;;;;;39.25;34.00;;;;;14.33;51.89;99685.97;4875113;29;8867;-78
2022/11/15 00:57:22;;;;;;;;;32.80;31.40;;;;;14.49;51.63;99677.88;4860426;29;9002;-76
2022/11/15 01:00:10;;;;;;;;;32.00;26.50;;;;;14.38;51.87;99688.53;4874372;29;8925;-76
2022/11/15 01:02:57;;;;;;;;;30.80;29.00;;;;;14.49;51.68;99685.75;4860293;29;8938;-79
2022/11/15 01:05:44;;;;;;;;;37.25;34.00;;;;;14.57;51.35;99694.41;4848986;29;8854;-78
2022/11/15 01:08:32;;;;;;;;;34.60;33.20;;;;;14.59;51.15;99690.88;4841361;29;8885;-78
2022/11/15 01:11:20;;;;;;;;;24.80;23.00;;;;;14.54;51.28;99681.31;4855392;29;8870;-76
2022/11/15 01:14:08;;;;;;;;;27.50;26.75;;;;;14.48;51.37;99686.63;4855069;29;9116;-78
2022/11/15 01:16:55;;;;;;;;;31.80;26.40;;;;;14.45;51.62;99687.56;4854816;29;8966;-79
2022/11/15 01:19:42;;;;;;;;;30.00;27.40;;;;;14.64;51.03;99688.19;4855443;29;9039;-77
2022/11/15 01:22:29;;;;;;;;;26.80;23.80;;;;;14.70;50.96;99682.84;4854613;29;8962;-77
2022/11/15 01:25:16;;;;;;;;;36.50;32.25;;;;;14.74;50.46;99667.91;4840782;29;8917;-76
2022/11/15 01:28:05;;;;;;;;;32.40;31.40;;;;;14.29;52.10;99678.16;4854809;29;8909;-79
2022/11/15 01:30:52;;;;;;;;;31.60;27.20;;;;;14.53;51.25;99676.94;4858397;29;9661;-79
2022/11/15 01:33:39;;;;;;;;;30.40;28.80;;;;;14.66;50.73;99675.91;4859202;29;8871;-78
2022/11/15 01:36:26;;;;;;;;;31.40;28.80;;;;;14.73;50.68;99661.81;4859111;29;8895;-76
2022/11/15 01:39:13;;;;;;;;;34.20;31.20;;;;;14.75;50.56;99659.16;4872887;29;8870;-77
2022/11/15 01:42:00;;;;;;;;;32.00;29.20;;;;;14.47;51.27;99664.78;4884534;29;8910;-77
2022/11/15 01:44:50;;;;;;;;;27.40;25.20;;;;;14.56;51.01;99662.03;4859344;29;8871;-77
2022/11/15 01:47:41;;;;;;;;;29.40;27.60;;;;;14.58;50.91;99657.66;4859378;29;8905;-75
2022/11/15 01:50:32;;;;;;;;;28.40;27.00;;;;;14.67;50.79;99659.28;4842884;29;8886;-77
2022/11/15 01:53:22;;;;;;;;;33.40;29.40;;;;;14.71;50.71;99666.22;4859276;29;8962;-79
2022/11/15 01:56:13;;;;;;;;;33.60;27.20;;;;;14.71;50.42;99676.72;4829596;29;8890;-78
2022/11/15 01:59:04;;;;;;;;;29.60;28.20;;;;;14.76;50.49;99676.63;4853713;29;8909;-78
2022/11/15 02:01:54;;;;;;;;;25.20;21.00;;;;;14.77;50.37;99678.38;4862225;29;8911;-78
2022/11/15 02:04:43;;;;;;;;;31.80;28.00;;;;;14.78;50.25;99675.72;4857244;29;8917;-77
2022/11/15 02:07:32;;;;;;;;;35.80;32.80;;;;;14.81;50.30;99672.19;4857344;29;8896;-78
2022/11/15 02:10:22;;;;;;;;;28.20;25.40;;;;;14.77;50.15;99687.09;4854647;29;8887;-75
2022/11/15 02:13:10;;;;;;;;;31.20;29.00;;;;;14.89;49.87;99669.44;4854279;29;8878;-78
2022/11/15 02:16:10;;;;;;;;;31.80;27.80;;;;;15.03;49.77;99664.81;4840310;29;8907;-78
2022/11/15 02:19:09;;;;;;;;;25.40;24.00;;;;;15.08;49.68;99660.34;4846556;29;8893;-76
2022/11/15 02:22:06;;;;;;;;;32.40;28.20;;;;;15.11;49.61;99651.56;4846862;29;9546;-76
2022/11/15 02:25:05;;;;;;;;;35.00;28.60;;;;;15.12;49.53;99658.53;4861618;29;8951;-76
2022/11/15 02:28:11;;;;;;;;;29.75;27.25;;;;;15.16;49.45;99665.47;4849252;29;8871;-79
2022/11/15 02:31:06;;;;;;;;;35.40;29.40;;;;;15.04;49.91;99661.28;4848405;29;8871;-76
2022/11/15 02:34:01;;;;;;;;;23.00;22.40;;;;;15.08;49.68;99655.09;4858471;29;8910;-76
2022/11/15 02:37:00;;;;;;;;;34.00;27.80;;;;;15.07;49.74;99663.03;4867135;29;9016;-76
2022/11/15 02:39:52;;;;;;;;;31.20;29.40;;;;;14.94;49.81;99660.59;4839708;29;8981;-76
2022/11/15 02:46:01;;;;;;;;;29.00;27.20;;;;;14.84;49.95;99661.63;4843877;29;8883;-77
2022/11/15 02:48:50;;;;;;;;;32.60;29.00;;;;;14.82;49.97;99661.66;4847218;29;8889;-78
2022/11/15 02:51:38;;;;;;;;;28.80;27.80;;;;;14.89;49.89;99653.69;4838396;29;8886;-77
2022/11/15 02:54:27;;;;;;;;;24.40;22.60;;;;;14.93;49.75;99653.63;4852160;29;8885;-76
2022/11/15 02:57:19;;;;;;;;;24.40;18.80;;;;;14.97;49.81;99657.03;4838612;29;8893;-77
2022/11/15 03:00:09;;;;;;;;;32.40;27.80;;;;;14.92;49.77;99658.88;4840136;29;8900;-76
2022/11/15 03:03:14;;;;;;;;;31.00;25.80;;;;;15.02;49.47;99663.94;4855054;29;8933;-78
2022/11/15 03:06:15;;;;;;;;;30.40;26.20;;;;;15.06;49.47;99654.25;4847805;29;9421;-77
2022/11/15 03:09:09;;;;;;;;;29.40;27.60;;;;;15.04;49.58;99661.28;4859322;29;9016;-77
2022/11/15 03:12:02;;;;;;;;;32.20;29.00;;;;;14.96;49.74;99661.41;4856145;29;8901;-77
2022/11/15 03:14:55;;;;;;;;;30.20;27.20;;;;;15.07;49.48;99668.28;4860736;29;9037;-77
2022/11/15 03:17:50;;;;;;;;;30.60;28.40;;;;;15.05;49.79;99663.03;4847435;29;8941;-77
2022/11/15 03:20:37;;;;;;;;;28.80;26.20;;;;;15.09;49.44;99667.34;4840871;29;9600;-78
2022/11/15 03:23:30;;;;;;;;;29.20;28.60;;;;;14.99;49.70;99669.25;4840459;29;8878;-77
2022/11/15 03:26:22;;;;;;;;;28.40;27.20;;;;;14.97;49.67;99667.53;4840109;29;8905;-78
2022/11/15 03:29:14;;;;;;;;;29.20;28.00;;;;;15.00;49.71;99670.13;4861544;29;9718;-76
2022/11/15 03:32:07;;;;;;;;;28.40;25.40;;;;;15.01;49.58;99667.47;4866084;29;9547;-78
2022/11/15 03:34:59;;;;;;;;;33.60;30.00;;;;;14.99;49.77;99660.53;4837202;29;9020;-77
2022/11/15 03:37:52;;;;;;;;;30.20;27.40;;;;;14.92;50.15;99651.00;4850924;29;8889;-77
2022/11/15 03:40:43;;;;;;;;;34.00;30.20;;;;;14.88;50.32;99657.22;4862596;29;8885;-77
2022/11/15 03:43:37;;;;;;;;;29.80;27.80;;;;;14.94;50.16;99639.56;4843964;29;9004;-77
2022/11/15 03:46:32;;;;;;;;;32.40;29.80;;;;;14.91;50.06;99642.25;4858785;29;8882;-77
2022/11/15 03:49:26;;;;;;;;;30.60;27.20;;;;;14.93;49.88;99639.59;4851136;29;8896;-76
2022/11/15 03:52:13;;;;;;;;;31.40;31.40;;;;;14.80;50.03;99644.19;4836882;29;9008;-77
2022/11/15 03:55:02;;;;;;;;;34.60;30.80;;;;;14.79;50.27;99648.56;4890949;29;8855;-77
2022/11/15 03:57:54;;;;;;;;;36.00;33.00;;;;;14.74;50.02;99642.50;4895345;29;8845;-77
2022/11/15 04:00:41;;;;;;;;;32.60;30.20;;;;;14.62;50.56;99637.47;4910118;29;8877;-78
2022/11/15 04:03:29;;;;;;;;;27.20;25.60;;;;;14.65;50.49;99637.44;4894003;29;8873;-78
2022/11/15 04:06:16;;;;;;;;;29.20;27.80;;;;;14.70;50.42;99638.22;4910340;29;9181;-78
2022/11/15 04:09:04;;;;;;;;;35.00;30.80;;;;;14.58;50.72;99638.41;4862326;29;9695;-76
2022/11/15 04:11:50;;;;;;;;;33.40;29.00;;;;;14.64;50.47;99630.44;4891291;29;8859;-78
2022/11/15 04:15:06;;;;;;;;;36.60;31.40;;;;;14.71;50.66;99621.59;4891866;29;8925;-77
2022/11/15 04:17:48;;;;;;;;;35.20;31.40;;;;;14.71;51.02;99624.22;4893378;29;8886;-79
2022/11/15 04:26:45;;;;;;;;;35.00;32.00;;;;;14.70;50.66;99605.84;4862486;29;8924;-76
2022/11/15 04:29:37;;;;;;;;;30.40;27.80;;;;;14.70;50.99;99605.84;4856735;29;8859;-77
2022/11/15 04:32:26;;;;;;;;;34.20;32.40;;;;;14.65;51.26;99626.94;4862762;29;8894;-77
2022/11/15 04:35:13;;;;;;;;;30.60;28.60;;;;;14.65;50.89;99628.69;4862589;29;8883;-77
2022/11/15 04:38:02;;;;;;;;;33.60;31.00;;;;;14.61;51.20;99614.72;4861777;29;8932;-77
2022/11/15 04:40:49;;;;;;;;;31.60;30.60;;;;;14.64;51.31;99593.69;4844579;29;8883;-78
2022/11/15 04:43:36;;;;;;;;;69.25;52.75;;;;;14.54;51.52;99602.59;4880208;29;8889;-76
2022/11/15 04:46:24;;;;;;;;;53.00;44.00;;;;;14.54;51.49;99608.69;4830954;29;8920;-78
2022/11/15 04:49:13;;;;;;;;;32.60;32.00;;;;;14.59;51.40;99603.41;4845082;29;8912;-76
2022/11/15 04:52:00;;;;;;;;;34.20;30.40;;;;;14.65;51.45;99605.94;4855890;29;8865;-75
2022/11/15 04:54:47;;;;;;;;;41.20;37.00;;;;;14.62;51.47;99603.34;4841242;29;8889;-75
2022/11/15 04:57:34;;;;;;;;;36.80;33.80;;;;;14.71;51.11;99602.34;4857601;29;8924;-79
2022/11/15 05:00:21;;;;;;;;;35.20;31.00;;;;;14.65;51.32;99591.94;4856563;29;9057;-77
2022/11/15 05:06:16;;;;;;;;;36.25;31.50;;;;;14.65;50.98;99586.69;4843597;29;10389;-77
2022/11/15 05:09:04;;;;;;;;;33.20;31.80;;;;;14.53;51.52;99580.72;4864031;29;8886;-77
2022/11/15 05:11:51;;;;;;;;;31.40;30.80;;;;;14.47;51.49;99574.72;4860077;29;8877;-75
2022/11/15 05:14:38;;;;;;;;;31.80;29.60;;;;;14.47;51.39;99572.09;4862081;29;9419;-77
2022/11/15 05:17:25;;;;;;;;;32.60;31.80;;;;;14.40;51.54;99580.06;4861907;29;8955;-80
2022/11/15 05:20:13;;;;;;;;;41.50;32.75;;;;;14.34;51.69;99587.16;4816837;29;1196347;-76
2022/11/15 05:23:02;;;;;;;;;72.25;55.75;;;;;14.36;51.82;99593.22;4842935;29;8877;-79
2022/11/15 05:25:49;;;;;;;;;76.67;61.67;;;;;14.40;51.99;99600.16;4846102;29;8865;-76
2022/11/15 05:28:37;;;;;;;;;31.80;30.60;;;;;14.36;51.82;99591.47;4858768;29;9131;-77
2022/11/15 05:31:25;;;;;;;;;40.25;35.75;;;;;14.22;52.25;99580.34;4842842;29;8894;-76
2022/11/15 05:34:12;;;;;;;;;38.00;33.00;;;;;14.02;53.04;99575.38;4858846;29;8893;-78
2022/11/15 05:37:00;;;;;;;;;38.40;33.00;;;;;13.98;53.38;99584.16;4855510;29;9012;-77
2022/11/15 05:39:48;;;;;;;;;39.40;35.60;;;;;13.98;53.12;99571.91;4841172;29;8910;-79
2022/11/15 05:42:35;;;;;;;;;33.60;32.20;;;;;13.94;53.24;99580.72;4855325;29;8878;-76
2022/11/15 05:45:23;;;;;;;;;36.20;32.60;;;;;14.12;52.73;99583.97;4852484;29;8920;-78
2022/11/15 05:48:14;;;;;;;;;41.80;33.00;;;;;14.03;53.19;99588.47;4840030;29;8992;-81
2022/11/15 05:51:02;;;;;;;;;36.60;34.80;;;;;14.22;52.65;99580.34;4859845;29;8943;-79
2022/11/15 05:53:51;;;;;;;;;39.60;31.60;;;;;14.27;52.71;99573.25;4842873;29;9709;-78
2022/11/15 05:56:40;;;;;;;;;42.75;34.25;;;;;14.35;52.50;99578.41;4857589;29;8881;-78
2022/11/15 05:59:30;;;;;;;;;35.20;32.20;;;;;14.28;52.69;99571.50;4856320;29;8924;-78
2022/11/15 06:02:17;;;;;;;;;31.80;28.20;;;;;14.15;52.83;99568.19;4859679;29;9018;-77
2022/11/15 06:05:05;;;;;;;;;35.80;31.20;;;;;14.10;53.22;99570.00;4850422;29;8855;-78
2022/11/15 06:07:52;;;;;;;;;28.40;27.20;;;;;14.17;53.09;99558.53;4876255;29;8887;-79
2022/11/15 06:10:39;;;;;;;;;33.60;32.00;;;;;14.14;53.17;99554.22;4868487;29;8891;-79
2022/11/15 06:13:27;;;;;;;;;35.00;32.80;;;;;14.08;53.23;99550.81;4906101;29;8867;-80
2022/11/15 06:16:15;;;;;;;;;38.20;35.00;;;;;14.09;53.60;99574.41;4911771;29;9075;-80
2022/11/15 06:19:02;;;;;;;;;35.20;31.80;;;;;14.25;52.97;99567.16;4916291;29;8897;-78
2022/11/15 06:21:49;;;;;;;;;34.00;30.20;;;;;14.32;52.86;99565.31;4911159;29;8885;-77
2022/11/15 06:24:37;;;;;;;;;35.40;32.60;;;;;14.34;52.84;99576.66;4902463;29;8877;-77
2022/11/15 06:27:24;;;;;;;;;33.60;30.80;;;;;14.40;52.65;99564.31;4895782;29;8867;-79
2022/11/15 06:30:12;;;;;;;;;39.80;34.00;;;;;14.51;52.68;99560.66;4895015;29;8896;-78
2022/11/15 06:33:01;;;;;;;;;36.50;34.25;;;;;14.56;52.46;99564.94;4909068;29;8875;-77
2022/11/15 06:35:48;;;;;;;;;43.40;34.60;;;;;14.57;52.50;99560.56;4880277;29;8892;-80
2022/11/15 06:38:36;;;;;;;;;32.40;28.80;;;;;14.66;52.20;99565.66;4898857;29;8998;-79
2022/11/15 06:41:23;;;;;;;;;30.80;29.40;;;;;14.68;51.95;99563.88;4879189;29;8879;-78
2022/11/15 06:44:11;;;;;;;;;29.00;26.40;;;;;14.75;51.80;99562.88;4895148;29;8902;-79
2022/11/15 06:46:59;;;;;;;;;32.80;29.20;;;;;14.82;51.51;99559.28;4859773;29;9751;-79
2022/11/15 06:49:46;;;;;;;;;32.60;31.40;;;;;14.88;51.43;99555.66;4856451;29;8993;-79
2022/11/15 06:52:34;;;;;;;;;38.50;34.50;;;;;14.90;51.17;99539.91;4861329;29;8891;-77
2022/11/15 06:55:21;;;;;;;;;35.60;31.60;;;;;14.99;51.18;99543.22;4848808;29;8963;-79
2022/11/15 06:58:08;;;;;;;;;33.60;28.60;;;;;15.02;50.76;99550.16;4861067;29;8887;-82
2022/11/15 07:01:01;;;;;;;;;33.80;32.00;;;;;15.17;50.80;99560.38;4868854;29;8907;-78
2022/11/15 07:03:50;;;;;;;;;38.80;33.20;;;;;15.12;50.76;99567.50;4875189;29;8913;-80
2022/11/15 07:06:37;;;;;;;;;34.60;29.60;;;;;15.22;50.24;99570.81;4873864;29;8871;-79
2022/11/15 07:09:24;;;;;;;;;32.40;26.40;;;;;15.36;50.29;99575.78;4861936;29;8891;-81
2022/11/15 07:12:11;;;;;;;;;35.75;33.50;;;;;15.46;50.15;99568.56;4860341;29;8882;-84
2022/11/15 07:14:58;;;;;;;;;43.00;36.25;;;;;15.42;50.39;99564.28;4854321;29;8937;-81
2022/11/15 07:17:45;;;;;;;;;43.50;37.25;;;;;15.54;50.44;99567.53;4861786;29;8871;-79
2022/11/15 07:20:34;;;;;;;;;49.50;41.00;;;;;15.68;49.97;99553.25;4872874;29;8886;-81
2022/11/15 07:23:21;;;;;;;;;43.25;35.00;;;;;15.65;50.19;99545.41;4869405;29;8949;-79
2022/11/15 07:26:08;;;;;;;;;41.00;35.75;;;;;15.56;50.20;99538.59;4872218;29;8867;-80
2022/11/15 07:28:55;;;;;;;;;39.80;34.00;;;;;15.56;49.85;99539.44;4856932;29;8990;-79
2022/11/15 07:31:42;;;;;;;;;38.00;34.75;;;;;15.70;49.43;99543.56;4853239;29;9032;-80
2022/11/15 07:34:29;;;;;;;;;38.60;34.20;;;;;15.72;49.17;99536.50;4856443;29;9062;-81
2022/11/15 07:37:18;;;;;;;;;38.80;32.00;;;;;15.76;49.22;99531.19;4873057;29;8902;-83
2022/11/15 07:40:06;;;;;;;;;40.60;32.60;;;;;15.82;49.04;99529.28;4859636;29;8899;-86
2022/11/15 07:42:59;;;;;;;;;42.00;36.25;;;;;15.79;49.49;99528.47;4861480;29;8874;-85
2022/11/15 07:45:47;;;;;;;;;41.75;33.75;;;;;15.87;49.18;99544.06;4872840;29;9067;-83
2022/11/15 07:48:34;;;;;;;;;50.50;39.00;;;;;16.01;49.26;99535.91;4854717;29;8901;-80
2022/11/15 07:51:30;;;;;;;;;47.00;38.75;;;;;16.19;48.92;99537.22;4862519;29;8921;-81
2022/11/15 07:54:19;;;;;;;;;52.25;42.00;;;;;16.27;48.91;99534.41;4861954;29;8919;-81
2022/11/15 07:57:09;;;;;;;;;46.75;39.25;;;;;16.36;48.75;99539.44;4855631;29;9030;-82
2022/11/15 07:59:56;;;;;;;;;49.25;39.25;;;;;16.52;48.09;99537.28;4877419;29;8942;-81
2022/11/15 08:02:44;;;;;;;;;50.75;41.25;;;;;16.56;47.81;99538.97;4870269;29;8955;-80
2022/11/15 08:05:32;;;;;;;;;48.00;39.00;;;;;16.58;47.83;99531.88;4859917;29;8891;-82
2022/11/15 08:08:20;;;;;;;;;54.25;42.00;;;;;16.67;47.62;99525.50;4859438;29;8867;-82
2022/11/15 08:11:08;;;;;;;;;54.00;41.50;;;;;16.77;47.60;99513.84;4857186;29;8930;-82
2022/11/15 08:13:56;;;;;;;;;22.75;18.00;;;;;16.79;47.63;99525.19;4857027;29;8895;-84
2022/11/15 08:16:43;;;;;;;;;40.50;34.25;;;;;16.75;47.83;99526.19;4857966;29;8879;-83
2022/11/15 08:19:30;;;;;;;;;39.75;35.00;;;;;16.70;47.57;99523.66;4856803;29;8888;-81
2022/11/15 08:22:18;;;;;;;;;37.00;32.40;;;;;16.82;47.82;99526.88;4858896;29;9750;-80
2022/11/15 08:25:05;;;;;;;;;40.40;36.20;;;;;16.88;47.49;99524.09;4858519;29;8895;-81
2022/11/15 08:27:58;;;;;;;;;38.75;34.25;;;;;17.04;47.17;99519.31;4844739;29;8903;-83
2022/11/15 08:30:45;;;;;;;;;35.50;33.25;;;;;17.03;47.14;99521.09;4861653;29;8891;-81
2022/11/15 08:33:36;;;;;;;;;42.60;35.40;;;;;17.04;47.35;99517.53;4857206;29;8966;-81
2022/11/15 08:36:22;;;;;;;;;34.40;31.80;;;;;17.22;47.27;99512.63;4856784;29;8895;-84
2022/11/15 08:39:12;;;;;;;;;35.25;33.50;;;;;17.31;47.30;99502.69;4858350;29;8870;-82
2022/11/15 08:42:00;;;;;;;;;38.75;35.50;;;;;17.47;46.80;99502.28;4841974;29;8887;-80
2022/11/15 08:44:49;;;;;;;;;42.75;35.75;;;;;17.45;47.11;99497.03;4857605;29;8871;-81
2022/11/15 08:47:36;;;;;;;;;36.75;33.25;;;;;17.48;47.23;99502.22;4859350;29;8899;-84
2022/11/15 08:50:24;;;;;;;;;35.20;32.00;;;;;17.68;46.56;99506.03;4864066;29;8889;-81
2022/11/15 08:53:13;;;;;;;;;39.60;34.00;;;;;17.72;46.62;99508.53;4875036;29;8902;-82
2022/11/15 08:56:01;;;;;;;;;42.25;37.75;;;;;17.81;46.53;99501.25;4866744;29;8891;-80
2022/11/15 08:58:48;;;;;;;;;43.75;37.50;;;;;17.96;46.21;99505.19;4856907;29;8906;-83
2022/11/15 09:01:36;;;;;;;;;41.25;35.25;;;;;18.05;46.10;99507.56;4856037;29;8891;-84
2022/11/15 09:04:24;;;;;;;;;43.25;36.50;;;;;18.12;46.11;99499.38;4856548;29;8991;-84
2022/11/15 09:07:12;;;;;;;;;48.75;37.50;;;;;18.14;46.02;99507.25;4856225;29;8954;-79
2022/11/15 09:10:00;;;;;;;;;36.40;34.00;;;;;18.12;45.72;99511.72;4858912;29;8876;-84
2022/11/15 09:12:48;;;;;;;;;41.25;35.50;;;;;18.17;45.43;99509.81;4859468;29;8859;-82
2022/11/15 09:15:35;;;;;;;;;46.20;35.40;;;;;18.21;45.65;99500.88;4859395;29;8894;-82
2022/11/15 09:18:24;;;;;;;;;42.00;36.25;;;;;18.23;45.62;99504.31;4858588;29;9707;-82
2022/11/15 09:21:12;;;;;;;;;39.75;35.00;;;;;18.13;45.38;99495.00;4861457;29;8878;-81
2022/11/15 09:23:59;;;;;;;;;47.00;35.50;;;;;18.17;45.61;99503.69;4855539;29;8873;-83
2022/11/15 09:26:46;;;;;;;;;32.80;31.60;;;;;18.21;45.23;99503.50;4840727;29;8894;-83
2022/11/15 09:29:34;;;;;;;;;40.80;35.00;;;;;18.33;45.20;99499.59;4841823;29;9640;-81
2022/11/15 09:32:22;;;;;;;;;47.25;38.00;;;;;18.47;45.12;99492.09;4840272;29;8881;-80
2022/11/15 09:35:11;;;;;;;;;43.40;37.00;;;;;18.63;44.93;99483.66;4841036;29;8893;-82
2022/11/15 09:37:59;;;;;;;;;38.60;34.40;;;;;18.64;44.63;99486.25;4853469;29;8898;-82
2022/11/15 09:41:06;;;;;;;;;44.00;36.00;;;;;18.95;44.56;99479.03;4862344;29;8903;-82
2022/11/15 09:44:07;;;;;;;;;40.50;34.50;;;;;19.09;44.29;99477.63;4862075;29;8878;-80
2022/11/15 09:47:06;;;;;;;;;43.25;36.75;;;;;19.23;43.86;99477.09;4875112;29;8911;-81
2022/11/15 09:50:02;;;;;;;;;44.00;36.75;;;;;19.36;43.73;99471.38;4857812;29;8867;-79
2022/11/15 09:52:39;;;;;;;;;49.25;39.50;;;;;19.51;43.27;99469.91;4849713;29;8867;-81
2022/11/15 09:55:10;;;;;;;;;46.25;37.50;;;;;19.48;43.11;99463.81;4856184;29;8925;-79
2022/11/15 09:57:46;;;;;;;;;37.20;33.60;;;;;19.55;42.97;99467.09;4842829;29;8896;-84
2022/11/15 10:00:19;;;;;;;;;46.25;36.75;;;;;19.67;42.81;99466.59;4856109;29;8870;-83
2022/11/15 10:03:13;;;;;;;;;40.00;33.75;;;;;19.72;42.86;99468.22;4841224;29;8881;-81
2022/11/15 10:05:44;;;;;;;;;43.75;36.00;;;;;19.74;43.01;99464.63;4855052;29;8890;-82
2022/11/15 10:08:32;;;;;;;;;40.00;34.50;;;;;19.66;42.65;99456.97;4855153;29;8880;-81
2022/11/15 10:11:04;;;;;;;;;42.25;36.50;;;;;19.58;43.01;99455.53;4838395;29;8886;-78
2022/11/15 10:13:57;;;;;;;;;40.75;35.50;;;;;19.66;42.85;99450.81;4824528;29;8881;-81
2022/11/15 10:16:56;;;;;;;;;44.75;35.50;;;;;19.91;42.72;99439.28;4839715;29;8908;-81
2022/11/15 10:19:33;;;;;;;;;43.25;36.50;;;;;19.75;42.63;99439.88;4839345;29;8996;-80
2022/11/15 10:22:18;;;;;;;;;46.50;37.50;;;;;19.83;42.81;99435.16;4839247;29;9032;-79
2022/11/15 10:24:51;;;;;;;;;44.00;35.50;;;;;19.83;42.89;99427.22;4839602;29;8905;-79
2022/11/15 10:27:20;;;;;;;;;42.25;36.00;;;;;19.92;42.79;99420.66;4824160;29;9059;-80
2022/11/15 10:29:51;;;;;;;;;44.50;37.50;;;;;20.10;42.50;99416.41;4855367;29;8896;-79
2022/11/15 10:32:22;;;;;;;;;45.50;38.75;;;;;20.09;42.17;99412.03;4850075;29;8883;-80
2022/11/15 10:34:51;;;;;;;;;45.00;37.00;;;;;20.12;42.60;99414.56;4860545;29;8871;-81
2022/11/15 10:37:29;;;;;;;;;44.25;35.75;;;;;20.31;42.25;99400.56;4860476;29;9037;-83
2022/11/15 10:40:21;;;;;;;;;40.75;36.00;;;;;20.34;42.13;99398.63;4875092;29;8979;-79
2022/11/15 10:43:06;;;;;;;;;38.00;34.25;;;;;20.54;41.75;99387.16;4877614;29;8995;-81
2022/11/15 10:45:35;;;;;;;;;39.50;35.25;;;;;20.59;41.72;99386.97;4895041;29;9048;-79
2022/11/15 10:48:26;;;;;;;;;43.25;34.75;;;;;20.85;41.29;99385.84;4894077;29;8974;-79
2022/11/15 10:50:55;;;;;;;;;44.75;34.25;;;;;20.79;41.02;99388.75;4861792;29;8883;-79
2022/11/15 10:53:32;;;;;;;;;34.20;31.60;;;;;20.83;41.21;99383.25;4892939;29;8899;-79
2022/11/15 10:56:07;;;;;;;;;41.80;34.00;;;;;20.84;41.15;99384.09;4892746;29;8867;-81
2022/11/15 10:58:42;;;;;;;;;37.75;34.00;;;;;20.82;40.93;99384.16;4862004;29;9046;-79
2022/11/15 11:01:14;;;;;;;;;40.00;34.75;;;;;20.83;40.75;99377.06;4874767;29;8859;-82
2022/11/15 11:03:45;;;;;;;;;35.60;32.00;;;;;20.77;41.02;99386.16;4822295;29;8863;-83
2022/11/15 11:06:16;;;;;;;;;41.75;35.75;;;;;20.75;41.00;99384.50;4791287;29;8898;-80
2022/11/15 11:08:56;;;;;;;;;41.50;35.75;;;;;20.92;40.95;99376.66;4822417;29;8943;-81
2022/11/15 11:11:46;;;;;;;;;38.75;34.00;;;;;21.03;40.62;99373.50;4837176;29;8958;-80
2022/11/15 11:14:26;;;;;;;;;40.75;34.50;;;;;20.84;40.97;99376.16;4837385;29;8925;-83
2022/11/15 11:17:05;;;;;;;;;43.50;36.25;;;;;20.98;40.49;99368.44;4821919;29;8872;-81
2022/11/15 11:20:00;;;;;;;;;43.50;36.00;;;;;21.07;40.58;99361.81;4837665;29;8883;-83
2022/11/15 11:22:40;;;;;;;;;44.00;36.25;;;;;20.95;40.57;99376.53;4794334;29;8882;-83
2022/11/15 11:25:24;;;;;;;;;39.33;33.33;;;;;21.02;40.40;99367.34;4779539;29;8999;-80
2022/11/15 11:28:10;;;;;;;;;44.00;37.75;;;;;21.03;40.44;99366.41;4781369;29;8971;-81
2022/11/15 11:30:50;;;;;;;;;47.75;38.50;;;;;20.99;40.49;99366.63;4782307;30;9751;-82
2022/11/15 11:33:23;;;;;;;;;43.50;37.50;;;;;20.98;40.51;99364.91;4775592;30;8979;-79
2022/11/15 11:36:04;;;;;;;;;45.75;38.75;;;;;21.06;40.37;99364.53;4796330;29;8902;-79
2022/11/15 11:38:44;;;;;;;;;44.00;35.50;;;;;21.03;40.34;99363.75;4768860;30;8907;-79
2022/11/15 11:41:25;;;;;;;;;46.25;38.75;;;;;20.97;40.52;99365.84;4778955;29;8890;-79
2022/11/15 11:44:08;;;;;;;;;43.00;36.50;;;;;20.96;40.50;99361.47;4752531;29;8874;-81
2022/11/15 11:46:52;;;;;;;;;47.00;38.25;;;;;20.95;40.47;99360.59;4797730;29;8889;-81
2022/11/15 11:49:29;;;;;;;;;43.50;36.25;;;;;20.74;40.83;99358.97;4813187;29;8905;-83
2022/11/15 11:52:03;;;;;;;;;46.00;38.25;;;;;20.73;40.69;99351.91;4797540;29;8979;-82
2022/11/15 11:54:40;;;;;;;;;44.50;36.75;;;;;20.70;40.77;99352.03;4797963;29;8886;-80
2022/11/15 11:57:18;;;;;;;;;42.00;36.50;;;;;20.67;40.92;99344.25;4813919;29;9762;-81
2022/11/15 11:59:54;;;;;;;;;46.25;37.00;;;;;20.53;40.88;99342.19;4836709;29;8878;-82
2022/11/15 12:02:35;;;;;;;;;46.50;38.25;;;;;20.44;40.96;99346.13;4838345;29;8878;-84
2022/11/15 12:05:14;;;;;;;;;45.75;37.25;;;;;20.33;41.18;99343.94;4836754;29;8889;-82
2022/11/15 12:07:45;;;;;;;;;45.75;37.50;;;;;20.23;41.26;99350.56;4837568;29;8885;-81
2022/11/15 12:10:21;;;;;;;;;45.25;36.00;;;;;20.24;41.31;99337.25;4838212;29;8897;-81
2022/11/15 12:13:00;;;;;;;;;47.50;36.25;;;;;20.20;41.49;99340.09;4837254;29;9687;-81
2022/11/15 12:15:36;;;;;;;;;45.75;38.25;;;;;20.15;41.60;99334.13;4847473;29;9337;-80
2022/11/15 12:18:05;;;;;;;;;39.00;35.50;;;;;20.03;41.55;99325.78;4855684;29;8871;-82
2022/11/15 12:20:40;;;;;;;;;43.00;37.75;;;;;20.06;41.48;99332.75;4865405;29;8898;-79
2022/11/15 12:23:16;;;;;;;;;45.50;38.50;;;;;20.11;41.40;99324.59;4862082;29;8903;-80
2022/11/15 12:25:51;;;;;;;;;50.25;39.75;;;;;20.09;41.59;99322.03;4857817;29;8887;-80
2022/11/15 12:28:32;;;;;;;;;41.75;34.50;;;;;20.14;41.32;99320.03;4851591;29;8899;-79
2022/11/15 12:31:07;;;;;;;;;37.50;33.25;;;;;20.16;41.23;99322.63;4873655;29;8887;-80
2022/11/15 12:33:39;;;;;;;;;45.00;37.00;;;;;20.17;41.16;99321.69;4846405;29;8905;-79
2022/11/15 12:36:12;;;;;;;;;42.00;35.25;;;;;20.20;41.08;99326.84;4856729;29;8883;-83
2022/11/15 12:38:56;;;;;;;;;46.50;38.00;;;;;20.29;41.08;99321.16;4841435;29;8897;-81
2022/11/15 12:41:26;;;;;;;;;44.75;36.25;;;;;20.16;41.11;99320.84;4840679;29;8883;-78
2022/11/15 12:43:57;;;;;;;;;44.75;37.00;;;;;20.15;41.33;99319.13;4858822;29;8917;-80
2022/11/15 12:47:02;;;;;;;;;43.50;36.00;;;;;20.33;41.16;99306.84;4895576;29;8922;-83
2022/11/15 12:49:45;;;;;;;;;43.25;37.00;;;;;20.29;41.02;99304.41;4895501;29;8887;-81
2022/11/15 12:52:14;;;;;;;;;46.00;38.00;;;;;20.16;41.09;99298.81;4895259;29;8875;-79
2022/11/15 12:55:24;;;;;;;;;45.75;37.50;;;;;20.38;40.94;99293.41;4895817;29;9009;-82
2022/11/15 12:57:53;;;;;;;;;39.25;35.25;;;;;20.10;41.54;99297.28;4880362;29;9028;-79
2022/11/15 13:00:40;;;;;;;;;43.50;37.75;;;;;20.25;41.14;99298.41;4848780;29;8887;-79
2022/11/15 13:03:29;;;;;;;;;44.75;35.25;;;;;20.27;41.29;99298.34;4864650;29;8875;-80
2022/11/15 13:06:06;;;;;;;;;41.75;35.00;;;;;20.06;41.53;99296.56;4864320;29;8867;-81